Nakhchivan — 9HHK8 — position and weather

sailwx.info

Track history (hours):
 
Tides and Currents Weather Stations Pressure Air Temp Water Temp Dewpoint Dewpoint Depression Visibility Wind Speed Wind Dir Waves Ship Positions

Nakhchivan

Last reported at 2014-Sep-23 06:23 UTC. Time now 2014-Oct-02 08:24 UTC.
Position N 35°55' E 025°36'.
Warning: this ship's position is 9 days out of date.

Length 139 m; draft 4.8 m.

Type: Cargo ship. MMSI: 215983000.

Date/timePositionNaut miles runAvg speedWind from/ knotsBaromVisibWave heightAir tempDewpointWater temp
2014-Sep-23 06:23N 35°55' E 025°36'8 9.1
2014-Sep-23 05:33N 35°59' E 025°28'8 8.4
2014-Sep-23 04:33N 36°01' E 025°18'9 8.9
2014-Sep-23 03:33N 36°01' E 025°07'10 9.0
2014-Sep-23 02:26N 36°01' E 024°55'8 9.1
2014-Sep-23 01:34N 36°01' E 024°45'9 9.3
2014-Sep-23 00:33N 36°01' E 024°33'10 9.5
2014-Sep-22 23:33N 36°02' E 024°21'46 9.3
2014-Sep-22 18:32N 36°02' E 023°24'410 9.1
2014-Sep-20 21:19N 36°06' E 014°57'7 8.8
2014-Sep-20 20:34N 36°00' E 014°51'9 8.8
2014-Sep-20 19:34N 35°53' E 014°45'1 0.6
2014-Sep-20 18:25N 35°53' E 014°45'0 0.0
2014-Sep-20 15:28N 35°53' E 014°45'0 0.0
2014-Sep-20 14:31N 35°53' E 014°45'0 0.1
2014-Sep-20 13:26N 35°53' E 014°45'0 0.1
2014-Sep-20 12:29N 35°53' E 014°45'0 0.0
2014-Sep-20 11:31N 35°53' E 014°45'0 0.0
2014-Sep-20 10:31N 35°53' E 014°45'0 0.0
2014-Sep-20 09:32N 35°53' E 014°45'0 0.0
2014-Sep-20 08:32N 35°53' E 014°45'0 0.0
2014-Sep-20 07:33N 35°53' E 014°45'264 7.3
2014-Sep-18 19:20N 37°60' E 009°54'7 8.6
2014-Sep-18 18:28N 37°59' E 009°45'9 8.9
2014-Sep-18 17:30N 37°59' E 009°34'9 9.1
2014-Sep-18 16:33N 37°59' E 009°23'10 9.4
2014-Sep-18 15:32N 37°58' E 009°11'10 9.7
2014-Sep-18 14:33N 37°57' E 008°59'10 9.9
2014-Sep-18 13:33N 37°56' E 008°46'10 9.7
2014-Sep-18 12:33N 37°54' E 008°34'10 9.8
2014-Sep-18 11:33N 37°53' E 008°22'281 9.6
2014-Sep-17 06:14N 37°00' E 002°34'7 9.7
2014-Sep-17 05:33N 36°59' E 002°26'1410.3
2014-Sep-17 04:14N 36°56' E 002°09'10310.1
2014-Sep-16 18:04N 36°37' E 000°03'5 9.4
2014-Sep-16 17:32N 36°36' W 000°03'  
Track history (hours):
 
Tides and Currents Weather Stations Pressure Air Temp Water Temp Dewpoint Dewpoint Depression Visibility Wind Speed Wind Dir Waves Ship Positions

Nakhchivan

Last reported at 2014-Sep-23 06:23 UTC. Time now 2014-Oct-02 08:24 UTC.
Position N 35°55' E 025°36'.
Warning: this ship's position is 9 days out of date.

Length 139 m; draft 4.8 m.

Type: Cargo ship. MMSI: 215983000.

Date/timePositionNaut miles runAvg speedWind from/ knotsBaromVisibWave heightAir tempDewpointWater temp
2014-Sep-23 06:23N 35°55' E 025°36'8 9.1
2014-Sep-23 05:33N 35°59' E 025°28'8 8.4
2014-Sep-23 04:33N 36°01' E 025°18'9 8.9
2014-Sep-23 03:33N 36°01' E 025°07'10 9.0
2014-Sep-23 02:26N 36°01' E 024°55'8 9.1
2014-Sep-23 01:34N 36°01' E 024°45'9 9.3
2014-Sep-23 00:33N 36°01' E 024°33'10 9.5
2014-Sep-22 23:33N 36°02' E 024°21'46 9.3
2014-Sep-22 18:32N 36°02' E 023°24'410 9.1
2014-Sep-20 21:19N 36°06' E 014°57'7 8.8
2014-Sep-20 20:34N 36°00' E 014°51'9 8.8
2014-Sep-20 19:34N 35°53' E 014°45'1 0.6
2014-Sep-20 18:25N 35°53' E 014°45'0 0.0
2014-Sep-20 15:28N 35°53' E 014°45'0 0.0
2014-Sep-20 14:31N 35°53' E 014°45'0 0.1
2014-Sep-20 13:26N 35°53' E 014°45'0 0.1
2014-Sep-20 12:29N 35°53' E 014°45'0 0.0
2014-Sep-20 11:31N 35°53' E 014°45'0 0.0
2014-Sep-20 10:31N 35°53' E 014°45'0 0.0
2014-Sep-20 09:32N 35°53' E 014°45'0 0.0
2014-Sep-20 08:32N 35°53' E 014°45'0 0.0
2014-Sep-20 07:33N 35°53' E 014°45'264 7.3
2014-Sep-18 19:20N 37°60' E 009°54'7 8.6
2014-Sep-18 18:28N 37°59' E 009°45'9 8.9
2014-Sep-18 17:30N 37°59' E 009°34'9 9.1
2014-Sep-18 16:33N 37°59' E 009°23'10 9.4
2014-Sep-18 15:32N 37°58' E 009°11'10 9.7
2014-Sep-18 14:33N 37°57' E 008°59'10 9.9
2014-Sep-18 13:33N 37°56' E 008°46'10 9.7
2014-Sep-18 12:33N 37°54' E 008°34'10 9.8
2014-Sep-18 11:33N 37°53' E 008°22'281 9.6
2014-Sep-17 06:14N 37°00' E 002°34'7 9.7
2014-Sep-17 05:33N 36°59' E 002°26'1410.3
2014-Sep-17 04:14N 36°56' E 002°09'10310.1
2014-Sep-16 18:04N 36°37' E 000°03'5 9.4
2014-Sep-16 17:32N 36°36' W 000°03'  

Dump ship's entire track history